createdAt,value
2017-06-01T00:00:22.146Z,26.43
2017-06-01T00:01:02.925Z,26.37
2017-06-01T00:01:43.815Z,26.4
2017-06-01T00:02:24.574Z,26.35
2017-06-01T00:03:05.313Z,26.37
2017-06-01T00:03:46.099Z,26.44
2017-06-01T00:04:26.847Z,26.39
2017-06-01T00:05:07.693Z,26.39
2017-06-01T00:05:48.517Z,26.44
2017-06-01T00:06:29.279Z,26.35
2017-06-01T00:07:10.021Z,26.39
2017-06-01T00:07:50.797Z,26.36
2017-06-01T00:08:31.616Z,26.39
2017-06-01T00:09:12.363Z,26.48
2017-06-01T00:09:53.146Z,26.44
2017-06-01T00:10:33.904Z,26.4
2017-06-01T00:11:14.720Z,26.47
2017-06-01T00:11:55.433Z,26.43
2017-06-01T00:12:36.281Z,26.33
2017-06-01T00:13:31.725Z,26.4
2017-06-01T00:14:12.445Z,26.39
2017-06-01T00:14:53.189Z,26.37
2017-06-01T00:15:33.944Z,26.37
2017-06-01T00:16:14.760Z,26.39
2017-06-01T00:16:55.575Z,26.37
2017-06-01T00:17:36.361Z,26.45
2017-06-01T00:18:17.185Z,26.39
2017-06-01T00:18:57.957Z,26.37
2017-06-01T00:19:38.682Z,26.43
2017-06-01T00:20:19.455Z,26.39
2017-06-01T00:21:00.289Z,26.43
2017-06-01T00:21:41.129Z,26.37
2017-06-01T00:22:21.871Z,26.43
2017-06-01T00:23:02.624Z,26.36
2017-06-01T00:23:43.382Z,26.4
2017-06-01T00:24:24.186Z,26.43
2017-06-01T00:25:04.964Z,26.32
2017-06-01T00:25:45.733Z,26.45
2017-06-01T00:26:26.493Z,26.39
2017-06-01T00:27:07.236Z,26.35
2017-06-01T00:27:47.981Z,26.39
2017-06-01T00:28:28.844Z,26.39
2017-06-01T00:29:09.602Z,26.37
2017-06-01T00:29:50.410Z,26.35
2017-06-01T00:30:31.230Z,26.47
2017-06-01T00:31:12.086Z,26.47
2017-06-01T00:31:52.855Z,26.44
2017-06-01T00:32:33.678Z,26.4
2017-06-01T00:33:14.423Z,26.44
2017-06-01T00:33:55.153Z,26.45
2017-06-01T00:34:36.015Z,26.47
2017-06-01T00:35:16.789Z,26.45
2017-06-01T00:35:57.537Z,26.35
2017-06-01T00:36:38.311Z,26.43
2017-06-01T00:37:19.075Z,26.39
2017-06-01T00:37:59.854Z,26.36
2017-06-01T00:38:40.605Z,26.37
2017-06-01T00:39:21.399Z,26.32
2017-06-01T00:40:02.161Z,26.43
2017-06-01T00:40:42.906Z,26.44
2017-06-01T00:41:23.645Z,26.39
2017-06-01T00:42:04.475Z,26.35
2017-06-01T00:42:45.262Z,26.37
2017-06-01T00:43:26.793Z,26.37
2017-06-01T00:44:07.586Z,26.35
2017-06-01T00:44:48.268Z,26.43
2017-06-01T00:45:29.122Z,26.43
2017-06-01T00:46:09.863Z,26.4
2017-06-01T00:46:50.752Z,26.43
2017-06-01T00:47:31.596Z,26.32
2017-06-01T00:48:12.336Z,26.4
2017-06-01T00:48:53.105Z,26.37
2017-06-01T00:49:33.933Z,26.37
2017-06-01T00:50:14.736Z,26.43
2017-06-01T00:50:55.600Z,26.4
2017-06-01T00:51:36.356Z,26.39
2017-06-01T00:52:17.121Z,26.39
2017-06-01T00:52:57.879Z,26.36
2017-06-01T00:53:38.639Z,26.37
2017-06-01T00:54:19.386Z,26.37
2017-06-01T00:55:00.153Z,26.29
2017-06-01T00:55:41.081Z,26.28
2017-06-01T00:56:21.806Z,26.29
2017-06-01T00:57:02.515Z,26.29
2017-06-01T00:57:43.326Z,26.29
2017-06-01T00:58:24.104Z,26.32
2017-06-01T00:59:04.784Z,26.3
2017-06-01T00:59:45.495Z,26.32
2017-06-01T01:00:26.291Z,26.25
2017-06-01T01:01:07.061Z,26.28
2017-06-01T01:01:47.841Z,26.25
2017-06-01T01:02:28.737Z,26.28
2017-06-01T01:03:09.510Z,26.2
2017-06-01T01:03:50.272Z,26.06
2017-06-01T01:04:31.022Z,26.02
2017-06-01T01:05:11.788Z,25.9
2017-06-01T01:05:52.613Z,25.87
2017-06-01T01:06:33.384Z,25.88
2017-06-01T01:07:14.155Z,25.77
2017-06-01T01:07:54.913Z,25.75
2017-06-01T01:08:35.637Z,25.65
2017-06-01T01:09:16.382Z,25.62
2017-06-01T01:09:57.211Z,25.62
2017-06-01T01:10:37.988Z,25.62
2017-06-01T01:11:18.735Z,25.7
2017-06-01T01:11:59.500Z,25.77
2017-06-01T01:12:40.264Z,25.88
2017-06-01T01:13:28.040Z,25.76
2017-06-01T01:14:08.726Z,25.77
2017-06-01T01:14:49.448Z,25.83
2017-06-01T01:15:30.238Z,25.88
2017-06-01T01:16:11.027Z,25.8
2017-06-01T01:16:51.777Z,25.82
2017-06-01T01:17:32.501Z,25.82
2017-06-01T01:18:13.295Z,25.82
2017-06-01T01:18:54.013Z,25.72
2017-06-01T01:19:34.847Z,25.79
2017-06-01T01:20:15.661Z,25.82
2017-06-01T01:20:56.485Z,25.77
2017-06-01T01:21:37.322Z,25.72
2017-06-01T01:22:18.121Z,25.72
2017-06-01T01:22:58.889Z,25.77
2017-06-01T01:23:39.717Z,25.75
2017-06-01T01:24:20.436Z,25.77
2017-06-01T01:25:01.237Z,25.77
2017-06-01T01:25:41.973Z,25.75
2017-06-01T01:26:22.758Z,25.72
2017-06-01T01:27:03.619Z,25.7
2017-06-01T01:27:44.398Z,25.65
2017-06-01T01:28:25.238Z,25.58
2017-06-01T01:29:05.932Z,25.57
2017-06-01T01:29:46.760Z,25.6
2017-06-01T01:30:27.483Z,25.61
2017-06-01T01:31:08.240Z,25.6
2017-06-01T01:31:49.052Z,25.65
2017-06-01T01:32:29.795Z,25.75
2017-06-01T01:33:10.556Z,25.73
2017-06-01T01:33:51.363Z,25.75
2017-06-01T01:34:32.154Z,25.73
2017-06-01T01:35:12.986Z,25.75
2017-06-01T01:35:53.841Z,25.67
2017-06-01T01:36:34.574Z,25.58
2017-06-01T01:37:15.317Z,25.67
2017-06-01T01:37:56.055Z,25.61
2017-06-01T01:38:36.871Z,25.61
2017-06-01T01:39:17.695Z,25.61
2017-06-01T01:39:58.478Z,25.62
2017-06-01T01:40:39.264Z,25.61
2017-06-01T01:41:20.068Z,25.61
2017-06-01T01:42:00.839Z,25.6
2017-06-01T01:42:41.688Z,25.64
2017-06-01T01:44:36.892Z,25.52
2017-06-01T01:45:17.669Z,25.51
2017-06-01T01:45:58.477Z,25.43
2017-06-01T01:46:39.221Z,25.45
2017-06-01T01:47:19.991Z,25.51
2017-06-01T01:48:00.710Z,25.47
2017-06-01T01:48:41.472Z,25.46
2017-06-01T01:49:22.252Z,25.47
2017-06-01T01:50:03.028Z,25.42
2017-06-01T01:50:43.797Z,25.5
2017-06-01T01:51:24.579Z,25.47
2017-06-01T01:52:05.319Z,25.33
2017-06-01T01:52:46.102Z,25.36
2017-06-01T01:53:26.841Z,25.4
2017-06-01T01:54:07.664Z,25.43
2017-06-01T01:54:48.377Z,25.54
2017-06-01T01:55:29.108Z,25.47
2017-06-01T01:56:09.890Z,25.57
2017-06-01T01:56:50.654Z,25.52
2017-06-01T01:57:31.432Z,25.61
2017-06-01T01:58:12.198Z,25.64
2017-06-01T01:58:52.979Z,25.58
2017-06-01T01:59:33.762Z,25.6
2017-06-01T02:00:14.634Z,25.58
2017-06-01T02:00:55.491Z,25.51
2017-06-01T02:01:36.269Z,25.43
2017-06-01T02:02:16.972Z,25.46
2017-06-01T02:02:57.761Z,25.45
2017-06-01T02:03:38.503Z,25.45
2017-06-01T02:04:19.250Z,25.54
2017-06-01T02:05:00.026Z,25.46
2017-06-01T02:05:40.827Z,25.5
2017-06-01T02:06:21.654Z,25.47
2017-06-01T02:07:02.361Z,25.5
2017-06-01T02:07:43.112Z,25.55
2017-06-01T02:08:23.855Z,25.57
2017-06-01T02:09:04.618Z,25.64
2017-06-01T02:09:45.349Z,25.64
2017-06-01T02:10:26.082Z,25.7
2017-06-01T02:11:06.906Z,25.64
2017-06-01T02:11:47.653Z,25.76
2017-06-01T02:12:28.468Z,25.72
2017-06-01T02:13:09.273Z,25.7
2017-06-01T02:13:50.029Z,25.79
2017-06-01T02:14:30.816Z,25.82
2017-06-01T02:15:11.675Z,25.76
2017-06-01T02:15:52.427Z,25.87
2017-06-01T02:16:33.207Z,25.83
2017-06-01T02:17:13.895Z,25.87
2017-06-01T02:17:54.657Z,25.83
2017-06-01T02:18:35.475Z,25.87
2017-06-01T02:19:16.240Z,25.82
2017-06-01T02:19:57.075Z,25.92
2017-06-01T02:20:37.919Z,25.92
2017-06-01T02:21:18.693Z,25.88
2017-06-01T02:21:59.442Z,25.92
2017-06-01T02:22:40.241Z,25.79
2017-06-01T02:23:20.989Z,25.77
2017-06-01T02:24:01.799Z,25.87
2017-06-01T02:24:42.530Z,25.85
2017-06-01T02:25:23.296Z,25.8
2017-06-01T02:26:04.086Z,25.75
2017-06-01T02:26:44.885Z,25.76
2017-06-01T02:27:25.724Z,25.79
2017-06-01T02:28:06.567Z,25.75
2017-06-01T02:28:47.313Z,25.7
2017-06-01T02:29:28.066Z,25.82
2017-06-01T02:30:08.911Z,25.82
2017-06-01T02:30:49.703Z,25.82
2017-06-01T02:31:30.515Z,25.83
2017-06-01T02:32:11.293Z,25.72
2017-06-01T02:32:52.017Z,25.77
2017-06-01T02:33:32.812Z,25.73
2017-06-01T02:34:13.568Z,25.72
2017-06-01T02:34:54.298Z,25.69
2017-06-01T02:35:35.032Z,25.65
2017-06-01T02:36:15.890Z,25.67
2017-06-01T02:36:56.604Z,25.67
2017-06-01T02:37:37.368Z,25.67
2017-06-01T02:38:18.242Z,25.69
2017-06-01T02:38:59.019Z,25.67
2017-06-01T02:39:39.761Z,25.76
2017-06-01T02:40:20.617Z,25.73
2017-06-01T02:41:01.334Z,25.8
2017-06-01T02:41:42.106Z,25.83
2017-06-01T02:42:22.858Z,25.73
2017-06-01T02:43:03.588Z,25.77
2017-06-01T02:43:44.355Z,25.79
2017-06-01T02:44:25.211Z,25.77
2017-06-01T02:45:05.897Z,25.83
2017-06-01T02:45:46.706Z,25.77
2017-06-01T02:46:27.449Z,25.88
2017-06-01T02:47:08.250Z,25.8
2017-06-01T02:47:48.997Z,25.87
2017-06-01T02:48:29.680Z,25.82
2017-06-01T02:49:10.461Z,25.91
2017-06-01T02:49:51.199Z,25.83
2017-06-01T02:50:31.979Z,25.9
2017-06-01T02:51:12.808Z,25.92
2017-06-01T02:51:53.555Z,25.87
2017-06-01T02:52:34.308Z,25.92
2017-06-01T02:53:15.063Z,25.91
2017-06-01T02:53:55.946Z,25.88
2017-06-01T02:54:36.770Z,25.82
2017-06-01T02:55:17.595Z,25.94
2017-06-01T02:55:58.364Z,25.94
2017-06-01T02:56:39.139Z,25.88
2017-06-01T02:57:19.926Z,25.88
2017-06-01T02:58:00.678Z,25.92
2017-06-01T02:58:41.452Z,25.9
2017-06-01T02:59:22.227Z,25.88
2017-06-01T03:00:03.003Z,25.85
2017-06-01T03:00:43.741Z,25.87
2017-06-01T03:01:24.495Z,25.92
2017-06-01T03:02:05.342Z,25.92
2017-06-01T03:02:46.084Z,25.87
2017-06-01T03:03:26.859Z,25.87
2017-06-01T03:04:07.504Z,25.88
2017-06-01T03:04:48.320Z,25.83
2017-06-01T03:05:29.064Z,25.82
2017-06-01T03:06:09.834Z,25.83
2017-06-01T03:06:50.636Z,25.82
2017-06-01T03:07:31.414Z,25.82
2017-06-01T03:08:12.196Z,25.82
2017-06-01T03:08:52.998Z,25.82
2017-06-01T03:09:33.751Z,25.77
2017-06-01T03:10:14.635Z,25.88
2017-06-01T03:10:55.331Z,25.85
2017-06-01T03:11:36.114Z,25.92
2017-06-01T03:12:16.967Z,25.9
2017-06-01T03:12:57.794Z,25.88
2017-06-01T03:13:38.537Z,25.91
2017-06-01T03:14:19.347Z,25.92
2017-06-01T03:15:00.201Z,25.94
2017-06-01T03:15:40.949Z,25.88
2017-06-01T03:16:21.650Z,25.9
2017-06-01T03:17:02.389Z,25.9
2017-06-01T03:17:43.134Z,25.87
2017-06-01T03:18:23.895Z,25.91
2017-06-01T03:19:04.672Z,25.9
2017-06-01T03:19:45.402Z,25.91
2017-06-01T03:20:26.168Z,25.92
2017-06-01T03:21:07.023Z,25.9
2017-06-01T03:21:47.859Z,25.94
2017-06-01T03:22:28.704Z,25.88
2017-06-01T03:23:09.446Z,25.97
2017-06-01T03:23:50.242Z,25.91
2017-06-01T03:24:30.964Z,25.91
2017-06-01T03:25:11.745Z,25.9
2017-06-01T03:25:52.520Z,25.88
2017-06-01T03:26:33.196Z,25.92
2017-06-01T03:27:13.966Z,25.94
2017-06-01T03:27:54.768Z,25.83
2017-06-01T03:28:35.499Z,25.9
2017-06-01T03:29:16.272Z,25.9
2017-06-01T03:29:56.980Z,25.88
2017-06-01T03:30:37.753Z,25.92
2017-06-01T03:31:18.551Z,25.9
2017-06-01T03:31:59.276Z,25.9
2017-06-01T03:32:40.097Z,25.87
2017-06-01T03:33:20.968Z,25.88
2017-06-01T03:34:01.654Z,25.95
2017-06-01T03:34:42.444Z,25.91
2017-06-01T03:35:23.191Z,25.9
2017-06-01T03:36:03.976Z,25.85
2017-06-01T03:36:44.664Z,25.88
2017-06-01T03:37:25.557Z,25.9
2017-06-01T03:38:06.241Z,25.87
2017-06-01T03:38:47.008Z,25.85
2017-06-01T03:39:27.798Z,25.9
2017-06-01T03:40:08.625Z,25.87
2017-06-01T03:40:49.369Z,25.88
2017-06-01T03:41:30.173Z,25.88
2017-06-01T03:42:10.875Z,25.87
2017-06-01T03:42:51.656Z,25.91
2017-06-01T03:43:32.516Z,25.88
2017-06-01T03:44:13.286Z,25.88
2017-06-01T03:44:54.103Z,25.87
2017-06-01T03:45:34.860Z,25.91
2017-06-01T03:46:15.673Z,25.88
2017-06-01T03:46:56.412Z,25.9
2017-06-01T03:47:37.166Z,26.09
2017-06-01T03:48:17.975Z,25.94
2017-06-01T03:48:58.704Z,25.9
2017-06-01T03:49:39.457Z,26.01
2017-06-01T03:50:20.269Z,25.97
2017-06-01T03:51:01.095Z,26.1
2017-06-01T03:51:41.906Z,25.98
2017-06-01T03:52:22.628Z,26.01
2017-06-01T03:53:03.391Z,25.98
2017-06-01T03:53:44.139Z,25.9
2017-06-01T03:54:24.836Z,25.97
2017-06-01T03:55:05.634Z,25.87
2017-06-01T03:55:46.349Z,25.94
2017-06-01T03:56:27.058Z,25.97
2017-06-01T03:57:07.782Z,26.05
2017-06-01T03:57:48.517Z,25.99
2017-06-01T03:58:29.315Z,25.97
2017-06-01T03:59:10.161Z,25.91
2017-06-01T03:59:50.911Z,25.95
2017-06-01T04:00:31.752Z,25.91
2017-06-01T04:01:12.480Z,25.92
2017-06-01T04:01:53.300Z,25.88
2017-06-01T04:02:34.038Z,25.99
2017-06-01T04:03:14.804Z,25.92
2017-06-01T04:03:55.543Z,25.94
2017-06-01T04:04:36.317Z,25.92
2017-06-01T04:05:17.148Z,25.88
2017-06-01T04:05:57.969Z,25.98
2017-06-01T04:06:38.681Z,25.91
2017-06-01T04:07:19.467Z,26.06
2017-06-01T04:08:00.198Z,25.94
2017-06-01T04:08:41.052Z,25.92
2017-06-01T04:09:21.795Z,26.02
2017-06-01T04:10:02.572Z,26.01
2017-06-01T04:10:43.303Z,25.97
2017-06-01T04:11:24.062Z,26.06
2017-06-01T04:12:04.847Z,26.07
2017-06-01T04:12:45.636Z,25.95
2017-06-01T04:13:26.421Z,25.92
2017-06-01T04:14:07.306Z,25.9
2017-06-01T04:14:48.112Z,25.9
2017-06-01T04:15:28.857Z,25.95
2017-06-01T04:16:09.672Z,25.94
2017-06-01T04:16:50.412Z,25.9
2017-06-01T04:17:31.236Z,25.98
2017-06-01T04:18:11.950Z,25.87
2017-06-01T04:18:52.784Z,25.91
2017-06-01T04:19:33.534Z,26.02
2017-06-01T04:20:14.336Z,26.05
2017-06-01T04:20:55.096Z,25.99
2017-06-01T04:21:35.839Z,25.91
2017-06-01T04:22:16.582Z,26.05
2017-06-01T04:22:57.338Z,26.05
2017-06-01T04:23:38.018Z,25.99
2017-06-01T04:24:18.768Z,26.07
2017-06-01T04:24:59.517Z,25.92
2017-06-01T04:25:40.306Z,26.05
2017-06-01T04:26:21.173Z,25.98
2017-06-01T04:27:01.879Z,25.94
2017-06-01T04:27:42.668Z,26.02
2017-06-01T04:28:23.403Z,25.98
2017-06-01T04:29:04.264Z,26.05
2017-06-01T04:29:45.123Z,25.98
2017-06-01T04:30:25.912Z,25.95
2017-06-01T04:31:06.682Z,26.05
2017-06-01T04:31:47.433Z,26.02
2017-06-01T04:32:28.248Z,26.07
2017-06-01T04:33:09.049Z,26.05
2017-06-01T04:33:49.751Z,25.98
2017-06-01T04:34:30.673Z,26.02
2017-06-01T04:35:11.345Z,26.07
2017-06-01T04:35:52.143Z,26.02
2017-06-01T04:36:32.866Z,26.06
2017-06-01T04:37:13.693Z,26.05
2017-06-01T04:37:54.369Z,25.95
2017-06-01T04:38:35.120Z,26.06
2017-06-01T04:39:15.946Z,25.97
2017-06-01T04:39:56.778Z,25.99
2017-06-01T04:40:37.567Z,25.99
2017-06-01T04:41:18.343Z,26.02
2017-06-01T04:41:59.137Z,26.01
2017-06-01T04:42:39.958Z,26.07
2017-06-01T04:43:20.791Z,26.02
2017-06-01T04:44:01.526Z,25.99
2017-06-01T04:44:42.341Z,25.99
2017-06-01T04:45:23.127Z,26.05
2017-06-01T04:46:03.908Z,26.01
2017-06-01T04:46:44.685Z,26.02
2017-06-01T04:47:25.488Z,26.01
2017-06-01T04:48:06.281Z,26.05
2017-06-01T04:48:47.012Z,26.02
2017-06-01T04:49:27.819Z,26.01
2017-06-01T04:50:08.547Z,26.06
2017-06-01T04:50:49.401Z,26.07
2017-06-01T04:51:30.162Z,26.09
2017-06-01T04:52:10.839Z,26.01
2017-06-01T04:52:51.671Z,26.07
2017-06-01T04:53:32.419Z,26.07
2017-06-01T04:54:13.124Z,26.09
2017-06-01T04:54:53.884Z,26.01
2017-06-01T04:55:34.616Z,25.98
2017-06-01T04:56:15.399Z,26.06
2017-06-01T04:56:56.150Z,26.05
2017-06-01T04:57:36.832Z,26.05
2017-06-01T04:58:17.698Z,25.99
2017-06-01T04:58:58.484Z,26.07
2017-06-01T04:59:39.242Z,26.07
2017-06-01T05:00:20.050Z,26.02
2017-06-01T05:01:00.834Z,26.09
2017-06-01T05:01:41.651Z,26.02
2017-06-01T05:02:22.445Z,26.02
2017-06-01T05:03:03.291Z,26.09
2017-06-01T05:03:43.980Z,26.09
2017-06-01T05:04:24.755Z,26.07
2017-06-01T05:05:05.540Z,26.05
2017-06-01T05:05:46.324Z,26.01
2017-06-01T05:06:27.115Z,26.09
2017-06-01T05:07:07.910Z,26.17
2017-06-01T05:07:48.633Z,26.05
2017-06-01T05:08:29.349Z,26.07
2017-06-01T05:09:10.238Z,26.09
2017-06-01T05:09:51.049Z,26.07
2017-06-01T05:10:31.897Z,26.12
2017-06-01T05:11:12.617Z,26.05
2017-06-01T05:11:53.355Z,26.2
2017-06-01T05:12:34.085Z,26.13
2017-06-01T05:13:14.834Z,26.2
2017-06-01T05:13:55.627Z,26.15
2017-06-01T05:14:36.360Z,26.18
2017-06-01T05:15:17.106Z,26.15
2017-06-01T05:15:57.920Z,26.29
2017-06-01T05:16:38.696Z,26.18
2017-06-01T05:17:19.543Z,26.28
2017-06-01T05:18:00.336Z,26.32
2017-06-01T05:18:41.133Z,26.23
2017-06-01T05:19:21.884Z,26.32
2017-06-01T05:20:02.664Z,26.32
2017-06-01T05:20:43.423Z,26.26
2017-06-01T05:21:24.239Z,26.3
2017-06-01T05:22:05.068Z,26.39
2017-06-01T05:22:45.818Z,26.36
2017-06-01T05:23:26.617Z,26.47
2017-06-01T05:24:07.378Z,26.51
2017-06-01T05:24:48.122Z,26.65
2017-06-01T05:25:28.959Z,26.95
2017-06-01T05:26:09.722Z,27.14
2017-06-01T05:26:50.493Z,27.39
2017-06-01T05:27:31.272Z,27.67
2017-06-01T05:28:12.081Z,27.82
2017-06-01T05:28:52.888Z,27.97
2017-06-01T05:29:33.673Z,27.99
2017-06-01T05:30:14.459Z,28.03
2017-06-01T05:30:55.206Z,28.17
2017-06-01T05:31:36.003Z,28.17
2017-06-01T05:32:16.784Z,28.14
2017-06-01T05:32:57.503Z,27.92
2017-06-01T05:33:38.296Z,27.63
2017-06-01T05:34:19.114Z,27.39
2017-06-01T05:34:59.988Z,27.18
2017-06-01T05:35:40.763Z,27.1
2017-06-01T05:36:21.535Z,26.94
2017-06-01T05:37:02.314Z,26.92
2017-06-01T05:37:43.094Z,26.92
2017-06-01T05:38:23.838Z,26.92
2017-06-01T05:39:04.599Z,26.89
2017-06-01T05:39:45.360Z,26.8
2017-06-01T05:40:26.068Z,26.81
2017-06-01T05:41:06.859Z,26.97
2017-06-01T05:41:47.644Z,27.04
2017-06-01T05:42:28.380Z,27.32
2017-06-01T05:43:09.076Z,27.5
2017-06-01T05:43:49.828Z,27.5
2017-06-01T05:44:30.654Z,27.29
2017-06-01T05:45:11.398Z,27.19
2017-06-01T05:45:52.171Z,27.03
2017-06-01T05:46:32.952Z,27.04
2017-06-01T05:47:13.678Z,26.91
2017-06-01T05:47:54.434Z,26.87
2017-06-01T05:48:35.174Z,26.87
2017-06-01T05:49:16.341Z,26.81
2017-06-01T05:49:57.139Z,26.75
2017-06-01T05:50:37.900Z,26.81
2017-06-01T05:51:18.771Z,26.8
2017-06-01T05:51:59.506Z,26.8
2017-06-01T05:52:40.269Z,26.82
2017-06-01T05:53:21.057Z,26.82
2017-06-01T05:54:01.823Z,26.8
2017-06-01T05:54:42.631Z,26.81
2017-06-01T05:55:23.384Z,26.84
2017-06-01T05:56:04.107Z,26.82
2017-06-01T05:56:44.909Z,26.81
2017-06-01T05:57:25.766Z,26.81
2017-06-01T05:58:06.520Z,26.82
2017-06-01T05:58:47.294Z,26.82
2017-06-01T05:59:28.078Z,26.82
2017-06-01T06:00:08.845Z,26.8
2017-06-01T06:00:49.594Z,26.8
2017-06-01T06:01:30.369Z,26.81
2017-06-01T06:02:11.164Z,26.85
2017-06-01T06:02:51.950Z,26.88
2017-06-01T06:03:33.070Z,26.87
2017-06-01T06:04:13.893Z,26.89
2017-06-01T06:04:55.440Z,26.91
2017-06-01T06:05:36.198Z,26.89
2017-06-01T06:06:16.969Z,26.88
2017-06-01T06:06:57.737Z,27
2017-06-01T06:07:38.803Z,27.12
2017-06-01T06:08:19.511Z,27.21
2017-06-01T06:09:00.283Z,27.29
2017-06-01T06:09:41.053Z,27.34
2017-06-01T06:10:21.805Z,27.32
2017-06-01T06:11:02.537Z,27.41
2017-06-01T06:11:43.334Z,27.36
2017-06-01T06:12:24.128Z,27.41
2017-06-01T06:13:04.953Z,27.4
2017-06-01T06:13:45.738Z,27.54
2017-06-01T06:14:26.571Z,27.54
2017-06-01T06:15:07.293Z,27.59
2017-06-01T06:15:48.106Z,27.63
2017-06-01T06:16:28.833Z,27.63
2017-06-01T06:17:09.580Z,27.7
2017-06-01T06:17:50.349Z,27.75
2017-06-01T06:18:31.156Z,27.78
2017-06-01T06:19:11.983Z,27.82
2017-06-01T06:19:52.788Z,27.82
2017-06-01T06:20:33.586Z,27.88
2017-06-01T06:21:14.348Z,27.93
2017-06-01T06:21:55.108Z,27.92
2017-06-01T06:22:35.921Z,28
2017-06-01T06:23:16.637Z,27.94
2017-06-01T06:23:57.418Z,27.94
2017-06-01T06:24:38.217Z,28.02
2017-06-01T06:25:18.947Z,28
2017-06-01T06:25:59.753Z,28.03
2017-06-01T06:26:40.558Z,28.04
2017-06-01T06:27:21.376Z,28.12
2017-06-01T06:28:02.150Z,28.14
2017-06-01T06:28:42.930Z,28.15
2017-06-01T06:29:23.899Z,28.12
2017-06-01T06:30:04.984Z,28.19
2017-06-01T06:30:45.804Z,28.36
2017-06-01T06:31:26.535Z,28.31
2017-06-01T06:32:07.260Z,28.3
2017-06-01T06:32:48.034Z,28.43
2017-06-01T06:33:28.936Z,28.46
2017-06-01T06:34:10.321Z,28.49
2017-06-01T06:34:51.624Z,28.39
2017-06-01T06:35:32.426Z,28.49
2017-06-01T06:36:13.570Z,28.51
2017-06-01T06:36:54.390Z,28.61
2017-06-01T06:37:35.240Z,28.55
2017-06-01T06:38:16.232Z,28.59
2017-06-01T06:38:57.057Z,28.62
2017-06-01T06:39:37.818Z,28.7
